Time;durP1;ratioP1;P1;durP2;ratioP2;P2;SDS_P1;SDS_P2;PMS_P1;PMS_P2;Temp;Humidity;BMP_temperature;BMP_pressure;BME280_temperature;BME280_humidity;BME280_pressure;Samples;Min_cycle;Max_cycle;Signal;HPM_P1;HPM_P2
2023/06/25 00:00:54;;;;;;;6.13;3.80;;;18.30;99.90;;;;;;5011049;28;20121;-74
2023/06/25 00:03:20;;;;;;;5.53;3.72;;;18.30;99.90;;;;;;5011841;28;20109;-75
2023/06/25 00:05:46;;;;;;;4.93;3.75;;;18.30;99.90;;;;;;5012230;28;20099;-75
2023/06/25 00:08:12;;;;;;;6.70;3.40;;;18.20;99.90;;;;;;4994738;28;20061;-74
2023/06/25 00:10:38;;;;;;;7.55;3.35;;;18.20;99.90;;;;;;5012613;28;20022;-74
2023/06/25 00:13:03;;;;;;;4.63;3.08;;;18.20;99.90;;;;;;5012215;28;20041;-75
2023/06/25 00:15:29;;;;;;;4.65;3.30;;;18.20;99.90;;;;;;5012002;28;20045;-74
2023/06/25 00:17:55;;;;;;;5.03;3.33;;;18.20;99.90;;;;;;5012013;28;20051;-73
2023/06/25 00:20:23;;;;;;;7.25;3.38;;;18.20;99.90;;;;;;4994843;28;20061;-73
2023/06/25 00:22:49;;;;;;;5.40;3.30;;;18.20;99.90;;;;;;5011471;28;20494;-74
2023/06/25 00:25:16;;;;;;;5.22;3.30;;;18.10;99.90;;;;;;5011535;28;20038;-74
2023/06/25 00:27:47;;;;;;;3.65;2.88;;;18.10;99.90;;;;;;5012143;28;20030;-75
2023/06/25 00:30:16;;;;;;;;;;;18.10;99.90;;;;;;5012852;28;20494;-73
2023/06/25 00:32:45;;;;;;;7.03;3.30;;;18.00;99.90;;;;;;5011834;28;19992;-73
2023/06/25 00:35:12;;;;;;;5.97;3.13;;;18.00;99.90;;;;;;5011431;28;20112;-75
2023/06/25 00:37:41;;;;;;;5.75;3.33;;;18.00;99.90;;;;;;5011228;28;20026;-74
2023/06/25 00:40:09;;;;;;;5.72;3.97;;;18.00;99.90;;;;;;5012352;28;20057;-74
2023/06/25 00:42:41;;;;;;;6.13;3.50;;;17.90;99.90;;;;;;5012318;28;20173;-75
2023/06/25 00:45:08;;;;;;;6.15;3.40;;;17.90;99.90;;;;;;5011756;28;20061;-76
2023/06/25 00:47:34;;;;;;;5.90;3.53;;;17.80;99.90;;;;;;5015090;28;20518;-76
2023/06/25 00:50:00;;;;;;;4.90;3.45;;;17.80;99.90;;;;;;5015479;28;20026;-76
2023/06/25 00:52:26;;;;;;;7.28;3.30;;;17.80;99.90;;;;;;5015299;28;20447;-75
2023/06/25 00:54:51;;;;;;;7.78;3.70;;;17.80;99.90;;;;;;5015557;28;20030;-73
2023/06/25 00:57:17;;;;;;;7.30;4.10;;;17.80;99.90;;;;;;4997460;28;20172;-74
2023/06/25 00:59:44;;;;;;;7.07;4.15;;;17.80;99.90;;;;;;5015646;28;20030;-73
2023/06/25 01:02:29;;;;;;;6.40;3.67;;;17.70;99.90;;;;;;5015747;28;20507;-74
2023/06/25 01:05:11;;;;;;;6.75;3.40;;;17.80;99.90;;;;;;5015182;28;20109;-74
2023/06/25 01:07:38;;;;;;;7.88;3.97;;;17.80;99.90;;;;;;5014722;28;20030;-75
2023/06/25 01:10:05;;;;;;;7.75;4.22;;;17.80;99.90;;;;;;5013926;28;20080;-73
2023/06/25 01:12:31;;;;;;;6.78;3.63;;;17.70;99.90;;;;;;5015343;28;20026;-73
2023/06/25 01:14:57;;;;;;;7.95;4.20;;;17.70;99.90;;;;;;5014464;28;20045;-74
2023/06/25 01:17:23;;;;;;;6.18;3.95;;;17.60;99.90;;;;;;5015452;28;20033;-73
2023/06/25 01:19:49;;;;;;;5.40;3.65;;;17.60;99.90;;;;;;5015182;28;20037;-74
2023/06/25 01:22:16;;;;;;;7.00;4.35;;;17.60;99.90;;;;;;5015302;28;20065;-74
2023/06/25 01:24:44;;;;;;;5.57;4.07;;;17.60;99.90;;;;;;5015034;28;20065;-73
2023/06/25 01:27:11;;;;;;;7.22;4.30;;;17.50;99.90;;;;;;5014665;28;20022;-73
2023/06/25 01:29:38;;;;;;;11.65;4.43;;;17.40;99.90;;;;;;5014784;28;20117;-73
2023/06/25 01:32:06;;;;;;;6.68;4.35;;;17.50;99.90;;;;;;4996796;28;20113;-74
2023/06/25 01:34:32;;;;;;;9.65;4.45;;;17.40;99.90;;;;;;5014938;28;20030;-75
2023/06/25 01:36:58;;;;;;;9.20;4.47;;;17.30;99.90;;;;;;5014974;28;20432;-73
2023/06/25 01:39:24;;;;;;;7.03;4.13;;;17.30;99.90;;;;;;5014500;28;20030;-75
2023/06/25 01:41:50;;;;;;;7.05;4.55;;;17.30;99.90;;;;;;5014812;28;20029;-73
2023/06/25 01:44:29;;;;;;;6.57;3.75;;;17.30;99.90;;;;;;4996704;28;20085;-76
2023/06/25 01:46:56;;;;;;;8.38;4.38;;;17.30;99.90;;;;;;5014173;28;20053;-74
2023/06/25 01:49:22;;;;;;;7.10;4.15;;;17.30;99.90;;;;;;5014027;28;20029;-74
2023/06/25 01:51:48;;;;;;;4.60;3.50;;;17.30;99.90;;;;;;5013888;28;20049;-74
2023/06/25 01:54:13;;;;;;;4.53;3.70;;;17.30;99.90;;;;;;5013850;28;20460;-74
2023/06/25 01:56:39;;;;;;;6.93;3.92;;;17.30;99.90;;;;;;5013351;28;20109;-74
2023/06/25 01:59:05;;;;;;;5.80;3.75;;;17.30;99.90;;;;;;5013856;28;20030;-74
2023/06/25 02:01:31;;;;;;;4.68;3.78;;;17.30;99.90;;;;;;5013617;28;20490;-75
2023/06/25 02:03:56;;;;;;;5.10;3.70;;;17.30;99.90;;;;;;5013915;28;20175;-73
2023/06/25 02:06:22;;;;;;;5.22;3.78;;;17.30;99.90;;;;;;4995519;28;20038;-74
2023/06/25 02:08:48;;;;;;;5.47;3.65;;;17.20;99.90;;;;;;4995434;28;20029;-74
2023/06/25 02:11:13;;;;;;;4.82;3.67;;;17.20;99.90;;;;;;5013626;28;20100;-76
2023/06/25 02:13:39;;;;;;;5.18;3.95;;;17.20;99.90;;;;;;5013716;28;20030;-75
2023/06/25 02:16:05;;;;;;;5.47;3.80;;;17.10;99.90;;;;;;5012298;28;20392;-76
2023/06/25 02:18:31;;;;;;;5.53;3.78;;;17.10;99.90;;;;;;5013998;28;20392;-74
2023/06/25 02:20:57;;;;;;;6.88;3.90;;;17.10;99.90;;;;;;5013277;28;20128;-75
2023/06/25 02:23:22;;;;;;;5.47;4.25;;;17.10;99.90;;;;;;5013370;28;20104;-74
2023/06/25 02:25:50;;;;;;;5.65;3.80;;;17.00;99.90;;;;;;4995565;28;20034;-76
2023/06/25 02:28:16;;;;;;;4.25;3.75;;;17.00;99.90;;;;;;5013710;28;20033;-75
2023/06/25 02:30:42;;;;;;;6.22;3.90;;;17.00;99.90;;;;;;5014126;28;20251;-74
2023/06/25 02:33:08;;;;;;;5.72;3.92;;;17.00;99.90;;;;;;4995950;28;20136;-75
2023/06/25 02:35:34;;;;;;;5.00;3.80;;;17.00;99.90;;;;;;5013441;28;20041;-74
2023/06/25 02:37:59;;;;;;;5.85;3.88;;;17.00;99.90;;;;;;5013258;28;20034;-76
2023/06/25 02:40:27;;;;;;;6.57;4.53;;;17.00;99.90;;;;;;5013384;28;20050;-74
2023/06/25 02:42:53;;;;;;;5.40;3.97;;;16.90;99.90;;;;;;5013648;28;20018;-74
2023/06/25 02:45:18;;;;;;;5.60;3.55;;;16.90;99.90;;;;;;5013189;28;20030;-74
2023/06/25 02:47:44;;;;;;;5.57;3.70;;;16.90;99.90;;;;;;5013629;28;20448;-74
2023/06/25 02:50:10;;;;;;;4.97;3.08;;;16.80;99.90;;;;;;5013531;28;20033;-75
2023/06/25 02:52:35;;;;;;;7.22;3.88;;;16.70;99.90;;;;;;5013595;28;20030;-73
2023/06/25 02:55:01;;;;;;;4.68;3.90;;;16.70;99.90;;;;;;5013834;28;20030;-74
2023/06/25 02:57:29;;;;;;;5.00;4.10;;;16.70;99.90;;;;;;5013017;28;20037;-73
2023/06/25 02:59:56;;;;;;;6.95;3.53;;;16.70;99.90;;;;;;5013351;28;20059;-73
2023/06/25 03:02:21;;;;;;;7.43;4.68;;;16.60;99.90;;;;;;5012680;28;20036;-73
2023/06/25 03:04:47;;;;;;;7.47;3.92;;;16.60;99.90;;;;;;5012675;28;20105;-74
2023/06/25 03:07:13;;;;;;;7.18;4.00;;;16.60;99.90;;;;;;4995403;28;20033;-73
2023/06/25 03:09:38;;;;;;;7.10;4.20;;;16.60;99.90;;;;;;5012634;28;20101;-75
2023/06/25 03:12:05;;;;;;;7.00;3.80;;;16.50;99.90;;;;;;5013106;28;20030;-75
2023/06/25 03:14:30;;;;;;;6.53;3.85;;;16.50;99.90;;;;;;5012805;28;20061;-73
2023/06/25 03:16:56;;;;;;;8.75;4.15;;;16.50;99.90;;;;;;5012682;28;20034;-75
2023/06/25 03:19:23;;;;;;;6.55;3.90;;;16.50;99.90;;;;;;5012890;28;20100;-74
2023/06/25 03:21:49;;;;;;;6.90;4.05;;;16.50;99.90;;;;;;5012746;28;20042;-75
2023/06/25 03:24:14;;;;;;;5.47;4.38;;;16.50;99.90;;;;;;5012376;28;20391;-75
2023/06/25 03:26:40;;;;;;;6.25;4.47;;;16.40;99.90;;;;;;5012442;28;20041;-75
2023/06/25 03:29:06;;;;;;;4.30;3.53;;;16.50;99.90;;;;;;4994826;28;20267;-73
2023/06/25 03:31:32;;;;;;;8.68;3.72;;;16.40;99.90;;;;;;5012391;28;20099;-73
2023/06/25 03:33:57;;;;;;;5.95;3.38;;;16.30;99.90;;;;;;5012700;28;20037;-75
2023/06/25 03:36:25;;;;;;;7.00;3.58;;;16.20;99.90;;;;;;5012358;28;20041;-74
2023/06/25 03:38:50;;;;;;;6.82;3.55;;;16.20;99.90;;;;;;5012481;28;20105;-73
2023/06/25 03:41:16;;;;;;;18.75;4.88;;;16.10;99.90;;;;;;5011081;28;20196;-74
2023/06/25 03:43:42;;;;;;;32.33;4.95;;;16.00;99.90;;;;;;4993772;28;20033;-73
2023/06/25 03:46:07;;;;;;;16.80;5.18;;;15.90;99.90;;;;;;5010762;28;20042;-73
2023/06/25 03:48:33;;;;;;;11.55;5.22;;;15.80;99.90;;;;;;4994678;28;20026;-75
2023/06/25 03:50:59;;;;;;;9.88;4.53;;;15.80;99.90;;;;;;5011958;28;20392;-72
2023/06/25 03:53:26;;;;;;;7.53;3.88;;;15.80;99.90;;;;;;5012303;28;20087;-73
2023/06/25 03:55:52;;;;;;;7.38;3.80;;;15.70;99.90;;;;;;5012303;28;20030;-75
2023/06/25 03:58:18;;;;;;;5.30;3.53;;;15.70;99.90;;;;;;5013192;28;20471;-75
2023/06/25 04:00:44;;;;;;;7.00;3.60;;;15.70;99.90;;;;;;5012618;28;20030;-73
2023/06/25 04:03:10;;;;;;;4.35;3.28;;;15.60;99.90;;;;;;5011822;28;20480;-73
2023/06/25 04:05:36;;;;;;;4.55;3.63;;;15.60;99.90;;;;;;5011636;28;20432;-74
2023/06/25 04:08:02;;;;;;;4.50;3.45;;;15.60;99.90;;;;;;5011847;28;20029;-74
2023/06/25 04:10:28;;;;;;;4.80;3.45;;;15.60;99.90;;;;;;5012333;28;20076;-72
2023/06/25 04:12:54;;;;;;;5.22;3.00;;;15.60;99.90;;;;;;5014857;28;20223;-75
2023/06/25 04:15:20;;;;;;;7.32;3.78;;;15.60;99.90;;;;;;5020567;28;20112;-75
2023/06/25 04:17:47;;;;;;;8.27;4.38;;;15.60;99.90;;;;;;5010876;28;20080;-76
2023/06/25 04:20:13;;;;;;;8.45;4.88;;;15.60;99.90;;;;;;5010866;28;20080;-74
2023/06/25 04:22:38;;;;;;;8.18;4.63;;;15.60;99.90;;;;;;5011451;28;20026;-75
2023/06/25 04:25:05;;;;;;;7.93;4.10;;;15.60;99.90;;;;;;5011867;28;20034;-73
2023/06/25 04:27:30;;;;;;;8.02;3.97;;;15.60;99.90;;;;;;5011676;28;20104;-74
2023/06/25 04:29:56;;;;;;;5.60;3.55;;;15.60;99.90;;;;;;5011294;28;20121;-74
2023/06/25 04:32:22;;;;;;;9.20;4.45;;;15.60;99.90;;;;;;5011497;28;20036;-74
2023/06/25 04:34:48;;;;;;;6.05;4.30;;;15.50;99.90;;;;;;5011054;28;20116;-74
2023/06/25 04:37:13;;;;;;;6.63;4.13;;;15.50;99.90;;;;;;5010229;28;20038;-73
2023/06/25 04:39:40;;;;;;;7.30;4.50;;;15.40;99.90;;;;;;5011180;28;20050;-74
2023/06/25 04:42:06;;;;;;;6.75;4.00;;;15.40;99.90;;;;;;5011616;28;20109;-75
2023/06/25 04:44:33;;;;;;;6.60;4.38;;;15.40;99.90;;;;;;4993568;28;20465;-74
2023/06/25 04:46:58;;;;;;;7.30;3.80;;;15.40;99.90;;;;;;5011797;28;20286;-74
2023/06/25 04:49:24;;;;;;;7.07;4.30;;;15.50;99.90;;;;;;5011843;28;20034;-74
2023/06/25 04:51:50;;;;;;;10.98;4.45;;;15.50;99.90;;;;;;5011458;28;20025;-74
2023/06/25 04:54:15;;;;;;;5.90;3.88;;;15.40;99.90;;;;;;5011151;28;20038;-73
2023/06/25 04:56:41;;;;;;;9.15;3.97;;;15.40;99.90;;;;;;5011713;28;20034;-73
2023/06/25 04:59:07;;;;;;;5.70;3.95;;;15.40;99.90;;;;;;5012187;28;20068;-74
2023/06/25 05:01:32;;;;;;;7.10;3.60;;;15.30;99.90;;;;;;5011778;28;20488;-73
2023/06/25 05:03:59;;;;;;;4.97;3.90;;;15.30;99.90;;;;;;5010543;28;20037;-74
2023/06/25 05:06:25;;;;;;;5.00;3.97;;;15.20;99.90;;;;;;5011340;28;20044;-75
2023/06/25 05:08:50;;;;;;;5.55;3.75;;;15.20;99.90;;;;;;4994711;28;20034;-75
2023/06/25 05:11:16;;;;;;;6.80;4.10;;;15.10;99.90;;;;;;5011835;28;20068;-74
2023/06/25 05:13:41;;;;;;;5.45;4.00;;;15.10;99.90;;;;;;5011121;28;20072;-74
2023/06/25 05:16:07;;;;;;;4.78;3.80;;;15.10;99.90;;;;;;5011090;28;20030;-74
2023/06/25 05:18:33;;;;;;;5.85;4.07;;;15.10;99.90;;;;;;5011624;28;20072;-75
2023/06/25 05:20:59;;;;;;;6.68;4.15;;;15.20;99.90;;;;;;5012156;28;20030;-75
2023/06/25 05:23:25;;;;;;;6.78;4.00;;;15.20;99.90;;;;;;5011957;28;20033;-73
2023/06/25 05:25:50;;;;;;;5.10;3.75;;;15.30;99.90;;;;;;5012044;28;20026;-73
2023/06/25 05:28:16;;;;;;;6.93;4.03;;;15.30;99.90;;;;;;5011465;28;20216;-75
2023/06/25 05:30:42;;;;;;;4.75;4.00;;;15.30;99.90;;;;;;5011409;28;20030;-74
2023/06/25 05:33:07;;;;;;;6.28;4.05;;;15.40;99.90;;;;;;5014827;28;20034;-74
2023/06/25 05:35:33;;;;;;;11.18;4.70;;;15.50;99.90;;;;;;5014973;28;20030;-73
2023/06/25 05:37:59;;;;;;;5.45;3.58;;;15.50;99.90;;;;;;5015001;28;20456;-74
2023/06/25 05:40:28;;;;;;;6.90;3.25;;;15.60;99.90;;;;;;5014566;28;20469;-74
2023/06/25 05:42:55;;;;;;;5.77;3.80;;;15.70;99.90;;;;;;5014727;28;20068;-73
2023/06/25 05:45:21;;;;;;;5.90;3.83;;;15.80;99.90;;;;;;5012968;28;20289;-73
2023/06/25 05:47:47;;;;;;;5.10;3.63;;;15.90;99.90;;;;;;5014328;28;20079;-74
2023/06/25 05:50:13;;;;;;;5.88;3.28;;;16.00;99.90;;;;;;5014810;28;20175;-74
2023/06/25 05:52:41;;;;;;;4.55;3.67;;;16.00;99.90;;;;;;5014856;28;20478;-74
2023/06/25 05:55:07;;;;;;;7.20;3.60;;;16.00;99.90;;;;;;4996702;28;20048;-73
2023/06/25 05:57:33;;;;;;;4.25;3.50;;;16.00;99.90;;;;;;5014359;28;20112;-74
2023/06/25 05:59:59;;;;;;;7.70;3.88;;;16.10;99.90;;;;;;5015297;28;20126;-73
2023/06/25 06:02:24;;;;;;;4.97;3.67;;;16.20;99.90;;;;;;5014233;28;20364;-75
2023/06/25 06:04:50;;;;;;;4.38;3.28;;;16.20;99.90;;;;;;5014396;28;20037;-74
2023/06/25 06:07:16;;;;;;;4.40;2.92;;;16.30;99.90;;;;;;5014309;28;20056;-73
2023/06/25 06:09:41;;;;;;;5.00;3.60;;;16.40;99.90;;;;;;5014599;28;20361;-73
2023/06/25 06:12:07;;;;;;;5.25;3.47;;;16.50;99.90;;;;;;5013992;28;20022;-73
2023/06/25 06:14:34;;;;;;;4.80;3.17;;;16.60;99.90;;;;;;5014324;28;20077;-75
2023/06/25 06:17:00;;;;;;;8.02;3.63;;;16.70;99.90;;;;;;5014271;28;20033;-74
2023/06/25 06:19:26;;;;;;;6.82;3.50;;;16.80;99.90;;;;;;5014240;28;20046;-74
2023/06/25 06:21:51;;;;;;;6.05;3.53;;;16.90;99.90;;;;;;5014124;28;20018;-74
2023/06/25 06:24:17;;;;;;;6.30;3.80;;;17.00;99.90;;;;;;5013606;28;20076;-74
2023/06/25 06:26:43;;;;;;;6.82;4.20;;;17.10;99.90;;;;;;4995995;28;20026;-76
2023/06/25 06:29:08;;;;;;;5.25;3.40;;;17.20;99.90;;;;;;5013933;28;20117;-74
2023/06/25 06:31:34;;;;;;;5.22;3.38;;;17.40;99.90;;;;;;5012685;28;20030;-74
2023/06/25 06:34:00;;;;;;;6.30;2.80;;;17.50;99.90;;;;;;5013940;28;20032;-73
2023/06/25 06:36:25;;;;;;;4.03;2.50;;;17.60;99.90;;;;;;4995597;28;20038;-74
2023/06/25 06:38:51;;;;;;;5.95;2.70;;;17.70;99.90;;;;;;5013686;28;20026;-74
2023/06/25 06:41:17;;;;;;;3.83;2.30;;;17.80;99.90;;;;;;5013673;28;20050;-73
2023/06/25 06:43:42;;;;;;;3.05;2.20;;;17.90;99.90;;;;;;5012888;28;20025;-75
2023/06/25 06:46:08;;;;;;;5.57;2.47;;;18.00;99.90;;;;;;5013181;28;20030;-74
2023/06/25 06:48:33;;;;;;;6.28;2.20;;;18.10;99.90;;;;;;5013669;28;20029;-74
2023/06/25 06:50:59;;;;;;;2.35;1.70;;;18.20;99.90;;;;;;5013735;28;20037;-74
2023/06/25 06:53:28;;;;;;;3.53;1.83;;;18.30;99.90;;;;;;5013709;28;20030;-73
2023/06/25 06:55:54;;;;;;;3.78;2.30;;;18.40;99.90;;;;;;4995324;28;20037;-75
2023/06/25 06:58:20;;;;;;;6.57;1.75;;;18.40;99.90;;;;;;5011575;28;20030;-75
2023/06/25 07:00:45;;;;;;;2.38;1.75;;;18.50;99.90;;;;;;5013150;28;20519;-73
2023/06/25 07:03:11;;;;;;;2.88;1.90;;;18.60;99.90;;;;;;5013197;28;20139;-74
2023/06/25 07:05:37;;;;;;;2.40;2.08;;;18.70;99.90;;;;;;5012957;28;20108;-74
2023/06/25 07:08:03;;;;;;;3.08;2.35;;;18.80;99.90;;;;;;5012935;28;20531;-73
2023/06/25 07:10:28;;;;;;;2.65;2.00;;;19.00;99.90;;;;;;4994926;28;20022;-73
2023/06/25 07:12:54;;;;;;;4.22;2.10;;;19.10;99.90;;;;;;5012745;28;20437;-73
2023/06/25 07:15:20;;;;;;;3.88;2.20;;;19.20;99.90;;;;;;5012941;28;20112;-74
2023/06/25 07:17:46;;;;;;;2.78;2.20;;;19.40;99.90;;;;;;5012841;28;20392;-74
2023/06/25 07:20:12;;;;;;;2.47;1.90;;;19.50;99.90;;;;;;4995715;28;20036;-75
2023/06/25 07:22:40;;;;;;;3.55;2.15;;;19.70;99.90;;;;;;5013000;28;20387;-75
2023/06/25 07:25:10;;;;;;;2.97;2.42;;;19.90;99.90;;;;;;4994677;28;20034;-74
2023/06/25 07:27:35;;;;;;;3.60;2.15;;;20.00;99.90;;;;;;5012613;28;20048;-74
2023/06/25 07:30:03;;;;;;;3.40;2.63;;;20.20;99.90;;;;;;5011669;28;20022;-73
2023/06/25 07:32:29;;;;;;;3.53;2.35;;;20.20;99.90;;;;;;5012430;28;20480;-73
2023/06/25 07:34:56;;;;;;;4.78;2.53;;;20.30;99.90;;;;;;5012350;28;20057;-74
2023/06/25 07:37:21;;;;;;;2.78;2.20;;;20.30;99.90;;;;;;5012502;28;20426;-74
2023/06/25 07:39:47;;;;;;;4.60;2.83;;;20.30;99.90;;;;;;5011826;28;20058;-75
2023/06/25 07:42:12;;;;;;;6.00;2.70;;;20.40;99.90;;;;;;5012021;28;20415;-74
2023/06/25 07:44:38;;;;;;;3.28;2.47;;;20.50;99.90;;;;;;5010695;28;20026;-74
2023/06/25 07:47:04;;;;;;;4.07;2.30;;;20.60;99.90;;;;;;5012097;28;20032;-74
2023/06/25 07:49:30;;;;;;;4.28;2.22;;;20.70;99.90;;;;;;5011809;28;20062;-75
2023/06/25 07:51:56;;;;;;;4.25;2.35;;;20.80;99.90;;;;;;5012048;28;20134;-74
2023/06/25 07:54:22;;;;;;;3.67;2.72;;;20.90;99.90;;;;;;5011132;28;20158;-75
2023/06/25 07:56:48;;;;;;;4.45;2.40;;;21.00;99.90;;;;;;5011426;28;20535;-75
2023/06/25 07:59:14;;;;;;;4.15;2.13;;;21.10;99.90;;;;;;5011296;28;20132;-74
2023/06/25 08:01:40;;;;;;;6.03;2.65;;;21.20;99.90;;;;;;5011897;28;20022;-74
2023/06/25 08:04:06;;;;;;;5.07;2.60;;;21.30;99.90;;;;;;5011631;28;20018;-74
2023/06/25 08:06:32;;;;;;;3.92;2.67;;;21.40;99.90;;;;;;5011455;28;20041;-75
2023/06/25 08:08:58;;;;;;;3.50;2.65;;;21.40;99.90;;;;;;5010838;28;20141;-74
2023/06/25 08:11:24;;;;;;;3.72;2.50;;;21.50;99.90;;;;;;5011274;28;20026;-73
2023/06/25 08:13:50;;;;;;;3.10;2.17;;;21.70;99.90;;;;;;5011422;28;20490;-74
2023/06/25 08:16:15;;;;;;;3.65;2.42;;;21.70;99.90;;;;;;5012092;28;20044;-74
2023/06/25 08:18:41;;;;;;;6.75;2.65;;;21.90;99.90;;;;;;4993619;28;20060;-74
2023/06/25 08:21:07;;;;;;;4.00;2.35;;;22.00;99.90;;;;;;5012696;28;20408;-74
2023/06/25 08:23:33;;;;;;;4.40;2.53;;;22.10;99.90;;;;;;5012217;28;20122;-73
2023/06/25 08:25:58;;;;;;;3.63;2.72;;;22.20;99.30;;;;;;5011920;28;20025;-74
2023/06/25 08:28:24;;;;;;;4.28;2.40;;;22.30;99.00;;;;;;5012284;28;20030;-73
2023/06/25 08:30:50;;;;;;;4.68;2.83;;;22.40;98.20;;;;;;5012147;28;20040;-74
2023/06/25 08:33:16;;;;;;;4.68;2.75;;;22.50;98.00;;;;;;5011858;28;20526;-73
2023/06/25 08:35:41;;;;;;;5.68;2.70;;;22.70;97.40;;;;;;4993491;28;20032;-75
2023/06/25 08:38:09;;;;;;;4.15;3.05;;;22.80;97.10;;;;;;5012154;28;20044;-74
2023/06/25 08:40:36;;;;;;;9.23;2.90;;;22.90;96.70;;;;;;5011175;28;20038;-73
2023/06/25 08:43:02;;;;;;;3.90;2.38;;;23.10;96.30;;;;;;5010965;28;20026;-73
2023/06/25 08:45:28;;;;;;;3.08;2.50;;;23.30;95.50;;;;;;5011604;28;20472;-74
2023/06/25 08:47:55;;;;;;;6.03;2.80;;;23.40;94.60;;;;;;5011944;28;20026;-73
2023/06/25 08:50:21;;;;;;;4.50;2.55;;;23.50;94.20;;;;;;5011645;28;20376;-72
2023/06/25 08:52:47;;;;;;;5.25;2.80;;;23.70;93.90;;;;;;5011738;28;20030;-74
2023/06/25 08:55:14;;;;;;;3.58;2.65;;;23.90;93.40;;;;;;5011242;28;20065;-74
2023/06/25 08:57:40;;;;;;;6.88;3.42;;;24.10;93.10;;;;;;5011478;28;20030;-75
2023/06/25 09:00:13;;;;;;;4.80;3.58;;;24.20;92.50;;;;;;5011693;28;20360;-75
2023/06/25 09:02:39;;;;;;;4.10;2.90;;;24.30;92.00;;;;;;5009830;28;20483;-75
2023/06/25 09:05:05;;;;;;;6.35;2.75;;;24.50;91.50;;;;;;5011392;28;20030;-73
2023/06/25 09:07:34;;;;;;;4.55;2.20;;;24.50;91.00;;;;;;5014109;28;20022;-73
2023/06/25 09:09:59;;;;;;;4.15;2.70;;;24.70;90.60;;;;;;5014799;28;20376;-74
2023/06/25 09:12:25;;;;;;;5.63;3.05;;;24.80;90.40;;;;;;5014891;28;20164;-74
2023/06/25 09:14:51;;;;;;;3.38;2.67;;;24.90;89.50;;;;;;5014514;28;20373;-74
2023/06/25 09:17:24;;;;;;;4.47;2.72;;;25.00;89.50;;;;;;5014752;28;20073;-74
2023/06/25 09:19:51;;;;;;;4.95;2.72;;;25.10;88.50;;;;;;5014501;28;20120;-73
2023/06/25 09:22:17;;;;;;;3.80;2.45;;;25.30;88.30;;;;;;5014597;28;20525;-74
2023/06/25 09:24:48;;;;;;;3.15;2.60;;;25.30;87.70;;;;;;5014903;28;20026;-73
2023/06/25 09:27:14;;;;;;;3.85;2.83;;;25.40;86.70;;;;;;4996534;28;20400;-74
2023/06/25 09:29:40;;;;;;;4.35;2.70;;;25.40;86.50;;;;;;5015158;28;20178;-76
2023/06/25 09:32:10;;;;;;;4.13;2.80;;;25.50;86.10;;;;;;5015198;28;20112;-74
2023/06/25 09:34:37;;;;;;;3.97;2.83;;;25.60;86.00;;;;;;4995805;28;20456;-75
2023/06/25 09:37:06;;;;;;;4.38;2.92;;;25.70;85.60;;;;;;5014638;28;20057;-74
2023/06/25 09:39:31;;;;;;;4.70;2.90;;;25.70;84.10;;;;;;5014989;28;20046;-77
2023/06/25 09:42:00;;;;;;;5.85;3.38;;;25.70;83.70;;;;;;5015284;28;20030;-74
2023/06/25 09:44:27;;;;;;;5.40;3.03;;;25.80;82.80;;;;;;4994457;28;20022;-76
2023/06/25 09:47:00;;;;;;;4.22;2.80;;;25.80;81.90;;;;;;5014811;28;20026;-75
2023/06/25 09:49:30;;;;;;;3.78;2.70;;;25.80;81.10;;;;;;5014729;28;20030;-73
2023/06/25 09:52:01;;;;;;;4.57;2.95;;;25.90;80.00;;;;;;5014949;28;20022;-75
2023/06/25 09:54:28;;;;;;;4.13;2.85;;;25.90;79.30;;;;;;5011713;28;20523;-74
2023/06/25 09:56:57;;;;;;;5.75;3.20;;;26.00;79.50;;;;;;5013450;28;20486;-74
2023/06/25 09:59:24;;;;;;;6.65;3.47;;;26.10;78.10;;;;;;5014356;28;20365;-74
2023/06/25 10:01:51;;;;;;;5.65;3.50;;;26.20;78.00;;;;;;5014280;28;20566;-74
2023/06/25 10:04:17;;;;;;;5.18;2.83;;;26.20;77.50;;;;;;5011492;28;20034;-74
2023/06/25 10:06:43;;;;;;;4.75;3.22;;;26.40;78.00;;;;;;4997005;28;20424;-75
2023/06/25 10:09:09;;;;;;;3.25;2.63;;;26.50;78.00;;;;;;5014622;28;20048;-75
2023/06/25 10:11:35;;;;;;;4.28;2.70;;;26.60;78.00;;;;;;5014325;28;20460;-73
2023/06/25 10:14:02;;;;;;;3.90;2.78;;;26.60;77.90;;;;;;5014493;28;20105;-75
2023/06/25 10:16:38;;;;;;;4.18;3.00;;;26.70;77.90;;;;;;5014230;28;20025;-76
2023/06/25 10:19:04;;;;;;;5.03;3.10;;;26.80;77.50;;;;;;5011755;28;20014;-74
2023/06/25 10:21:30;;;;;;;4.13;3.17;;;26.90;77.60;;;;;;5014269;28;20033;-74
2023/06/25 10:24:01;;;;;;;4.13;2.58;;;27.00;76.50;;;;;;5011591;28;20095;-75
2023/06/25 10:26:32;;;;;;;6.00;3.33;;;27.10;76.10;;;;;;5013830;28;20061;-73
2023/06/25 10:29:07;;;;;;;7.15;3.30;;;27.20;75.90;;;;;;5014171;28;20387;-74
2023/06/25 10:31:40;;;;;;;3.97;2.97;;;27.10;75.70;;;;;;5014467;28;20033;-73
2023/06/25 10:34:08;;;;;;;4.38;3.00;;;27.20;75.10;;;;;;5013841;28;20026;-75
2023/06/25 10:36:34;;;;;;;6.05;2.92;;;27.30;74.80;;;;;;5014470;28;20029;-73
2023/06/25 10:39:00;;;;;;;3.75;2.92;;;27.30;74.40;;;;;;5014238;28;20033;-75
2023/06/25 10:41:31;;;;;;;4.95;3.10;;;27.30;73.80;;;;;;4996052;28;20083;-75
2023/06/25 10:43:58;;;;;;;5.13;3.15;;;27.40;74.10;;;;;;5013429;28;20026;-75
2023/06/25 10:46:30;;;;;;;4.22;2.95;;;27.50;73.30;;;;;;5013599;28;20034;-75
2023/06/25 10:48:59;;;;;;;5.40;3.00;;;27.60;72.90;;;;;;5013721;28;20033;-73
2023/06/25 10:51:26;;;;;;;5.00;3.30;;;27.60;72.80;;;;;;5012338;28;20021;-75
2023/06/25 10:53:54;;;;;;;4.28;2.80;;;27.80;72.70;;;;;;5012626;28;20033;-74
2023/06/25 10:56:20;;;;;;;6.45;3.28;;;28.10;72.20;;;;;;5011213;28;20100;-73
2023/06/25 10:58:52;;;;;;;4.57;2.50;;;28.20;71.70;;;;;;5013013;28;20022;-72
2023/06/25 11:01:18;;;;;;;4.13;2.58;;;28.20;71.00;;;;;;5011822;28;20109;-73
2023/06/25 11:03:44;;;;;;;5.13;3.00;;;28.30;70.30;;;;;;5013226;28;20112;-73
2023/06/25 11:06:09;;;;;;;3.95;3.22;;;28.20;70.40;;;;;;5012991;28;20034;-73
2023/06/25 11:08:35;;;;;;;6.95;2.97;;;28.10;70.40;;;;;;5012411;28;20030;-73
2023/06/25 11:11:03;;;;;;;7.43;3.67;;;28.00;70.20;;;;;;5013056;28;20034;-73
2023/06/25 11:13:31;;;;;;;4.88;3.33;;;27.90;70.40;;;;;;5007838;28;20423;-73
2023/06/25 11:15:57;;;;;;;6.18;3.28;;;27.90;70.40;;;;;;5012200;28;20026;-74
2023/06/25 11:18:23;;;;;;;4.03;3.03;;;28.00;70.70;;;;;;5012526;28;20136;-74
2023/06/25 11:20:49;;;;;;;4.82;3.00;;;28.10;70.80;;;;;;5012614;28;20095;-74
2023/06/25 11:23:15;;;;;;;3.47;2.78;;;28.20;71.00;;;;;;5012412;28;20018;-74
2023/06/25 11:25:41;;;;;;;4.35;3.38;;;28.30;70.60;;;;;;4995185;28;20507;-74
2023/06/25 11:28:12;;;;;;;5.18;3.35;;;28.50;70.60;;;;;;5013187;28;20211;-73
2023/06/25 11:30:38;;;;;;;6.07;2.97;;;28.70;69.60;;;;;;4991473;28;20050;-74
2023/06/25 11:33:11;;;;;;;4.40;2.78;;;28.90;69.90;;;;;;5013022;28;20068;-74
2023/06/25 11:35:38;;;;;;;3.58;2.67;;;29.00;69.10;;;;;;4992841;28;20045;-73
2023/06/25 11:38:04;;;;;;;5.43;3.20;;;29.10;68.40;;;;;;5012657;28;20033;-73
2023/06/25 11:40:31;;;;;;;4.53;3.30;;;29.20;68.50;;;;;;5012251;28;20042;-73
2023/06/25 11:42:57;;;;;;;7.80;3.55;;;29.30;67.90;;;;;;5012500;28;20037;-72
2023/06/25 11:45:23;;;;;;;4.47;2.95;;;29.40;67.20;;;;;;5012082;28;20034;-73
2023/06/25 11:47:53;;;;;;;4.35;3.17;;;29.40;67.00;;;;;;5012049;28;20479;-73
2023/06/25 11:50:22;;;;;;;3.97;3.33;;;29.40;65.90;;;;;;5011973;28;20026;-73
2023/06/25 11:52:49;;;;;;;4.15;3.53;;;29.50;66.50;;;;;;5012135;28;20030;-73
2023/06/25 11:55:14;;;;;;;4.70;3.15;;;29.50;67.00;;;;;;5011137;28;20030;-74
2023/06/25 11:57:40;;;;;;;5.80;3.03;;;29.60;66.50;;;;;;5012426;28;20080;-73
2023/06/25 12:00:07;;;;;;;5.32;3.63;;;29.70;66.50;;;;;;5012357;28;20022;-73
2023/06/25 12:02:33;;;;;;;6.63;3.80;;;29.60;65.70;;;;;;5012249;28;20030;-73
2023/06/25 12:04:59;;;;;;;6.20;3.90;;;29.40;65.70;;;;;;4993121;28;20042;-73
2023/06/25 12:07:25;;;;;;;4.35;2.92;;;29.20;65.10;;;;;;5011964;28;20506;-73
2023/06/25 12:09:51;;;;;;;5.00;3.45;;;29.00;65.20;;;;;;5011162;28;20025;-73
2023/06/25 12:12:17;;;;;;;6.65;3.40;;;28.80;65.90;;;;;;5011703;28;20392;-74
2023/06/25 12:14:44;;;;;;;5.07;3.63;;;28.70;66.20;;;;;;5012961;28;20040;-74
2023/06/25 12:17:13;;;;;;;4.97;3.50;;;28.80;65.90;;;;;;5011651;28;20029;-73
2023/06/25 12:19:39;;;;;;;10.33;3.73;;;28.90;66.40;;;;;;4996251;28;20080;-74
2023/06/25 12:22:06;;;;;;;7.53;3.28;;;29.20;66.60;;;;;;5029769;28;20025;-74
2023/06/25 12:24:31;;;;;;;6.68;4.13;;;29.30;66.40;;;;;;5024850;28;20037;-73
2023/06/25 12:26:57;;;;;;;5.90;3.28;;;29.40;65.60;;;;;;5010722;28;20388;-74
2023/06/25 12:29:23;;;;;;;8.77;4.05;;;29.20;64.40;;;;;;5012288;28;20110;-74
2023/06/25 12:31:48;;;;;;;6.05;3.20;;;29.10;65.70;;;;;;5010878;28;20053;-73
2023/06/25 12:34:14;;;;;;;4.47;2.97;;;29.10;65.70;;;;;;4992582;28;20084;-73
2023/06/25 12:36:40;;;;;;;4.75;3.53;;;29.10;65.20;;;;;;5011161;28;20077;-73
2023/06/25 12:39:06;;;;;;;4.50;3.00;;;29.10;65.30;;;;;;5011221;28;20057;-74
2023/06/25 12:41:32;;;;;;;6.90;3.85;;;29.10;65.20;;;;;;5010479;28;20037;-73
2023/06/25 12:43:57;;;;;;;4.10;3.38;;;29.30;66.00;;;;;;5009947;28;20402;-73